createdAt,value
2022-09-09T00:16:57.502Z,97831.31
2022-09-09T00:37:00.105Z,97818.03
2022-09-09T00:57:02.853Z,97830.25
2022-09-09T01:17:07.728Z,97850.47
2022-09-09T01:37:10.490Z,97866.53
2022-09-09T01:57:13.341Z,97872.59
2022-09-09T02:17:15.924Z,97882.59
2022-09-09T02:37:18.406Z,97889.53
2022-09-09T02:57:21.070Z,97908.41
2022-09-09T03:17:23.663Z,97939.16
2022-09-09T03:37:26.147Z,97941.69
2022-09-09T03:57:28.992Z,97936.63
2022-09-09T04:17:31.630Z,97950.75
2022-09-09T04:37:34.249Z,97965.22
2022-09-09T04:57:36.979Z,97975.09
2022-09-09T05:17:40.170Z,97979.44
2022-09-09T05:37:42.707Z,97992.47
2022-09-09T05:57:45.913Z,98005.63
2022-09-09T06:17:49.402Z,98018.81
2022-09-09T06:37:51.938Z,98016.88
2022-09-09T06:57:54.545Z,98008.75
2022-09-09T07:17:57.095Z,98016.75
2022-09-09T07:38:00.457Z,98009.34
2022-09-09T07:58:03.197Z,98006.94
2022-09-09T08:18:06.485Z,98009.75
2022-09-09T08:38:10.933Z,98014.16
2022-09-09T08:58:13.816Z,98013.03
2022-09-09T09:18:18.054Z,97978.56
2022-09-09T09:58:43.874Z,97971.63
2022-09-09T10:18:46.541Z,97966.44
2022-09-09T10:38:49.407Z,97957.09
2022-09-09T10:58:51.864Z,97983.81
2022-09-09T11:18:54.582Z,97988.69
2022-09-09T11:38:58.652Z,97977.59
2022-09-09T11:59:01.335Z,97998.53
2022-09-09T12:19:04.015Z,97987.72
2022-09-09T12:39:07.050Z,97981.06
2022-09-09T12:59:09.911Z,97986.22
2022-09-09T13:19:12.470Z,97980.44
2022-09-09T13:39:15.149Z,97980.81
2022-09-09T13:59:17.789Z,97961.16
2022-09-09T14:19:20.647Z,97943.75
2022-09-09T14:39:23.707Z,97930.59
2022-09-09T14:59:26.276Z,97919.63
2022-09-09T15:19:28.868Z,97915.53
2022-09-09T15:39:33.670Z,97924.75
2022-09-09T15:59:38.420Z,97923.62
2022-09-09T16:19:41.113Z,97926.63
2022-09-09T16:39:43.927Z,97924.25
2022-09-09T16:59:46.430Z,97904.78
2022-09-09T17:19:49.005Z,97914.50
2022-09-09T17:39:51.858Z,97929.75
2022-09-09T17:59:54.848Z,97946.91
2022-09-09T18:19:57.356Z,97947.59
2022-09-09T18:40:00.881Z,97965.31
2022-09-09T19:13:53.339Z,97977.00
2022-09-09T19:33:56.826Z,97988.13
2022-09-09T19:53:59.233Z,97977.75
2022-09-09T20:14:01.924Z,97978.53
2022-09-09T20:34:04.667Z,97978.63
2022-09-09T20:54:07.145Z,97969.53
2022-09-09T21:14:10.285Z,97966.78
2022-09-09T21:34:14.385Z,97951.34
2022-09-09T21:54:16.899Z,97965.94
2022-09-09T22:14:19.645Z,97970.69
2022-09-09T22:34:22.331Z,97964.59
2022-09-09T22:54:25.301Z,97946.22
2022-09-09T23:14:28.109Z,97928.94
2022-09-09T23:34:33.053Z,97940.50
2022-09-09T23:54:35.461Z,97939.19
